createdAt,value
2023-03-26T00:01:25.115Z,8.93
2023-03-26T00:03:54.062Z,8.92
2023-03-26T00:06:23.417Z,8.85
2023-03-26T00:08:50.396Z,8.86
2023-03-26T00:11:19.558Z,8.82
2023-03-26T00:13:47.872Z,8.81
2023-03-26T00:16:17.269Z,8.84
2023-03-26T00:18:44.699Z,8.84
2023-03-26T00:21:15.403Z,8.71
2023-03-26T00:23:43.399Z,8.73
2023-03-26T00:26:11.380Z,8.67
2023-03-26T00:28:40.743Z,8.62
2023-03-26T00:31:09.305Z,8.71
2023-03-26T00:33:40.921Z,8.67
2023-03-26T00:36:14.932Z,8.70
2023-03-26T00:38:43.223Z,8.72
2023-03-26T00:41:23.334Z,8.77
2023-03-26T00:43:53.649Z,8.73
2023-03-26T00:46:20.974Z,8.75
2023-03-26T00:48:48.320Z,8.78
2023-03-26T00:51:17.743Z,8.79
2023-03-26T00:53:46.523Z,8.74
2023-03-26T00:56:14.190Z,8.77
2023-03-26T00:58:41.283Z,8.77
2023-03-26T01:01:14.011Z,8.83
2023-03-26T01:03:50.369Z,8.85
2023-03-26T01:06:28.134Z,8.89
2023-03-26T01:09:00.509Z,8.90
2023-03-26T01:11:33.761Z,8.86
2023-03-26T01:14:07.561Z,8.86
2023-03-26T01:16:42.440Z,8.88
2023-03-26T01:19:21.420Z,8.86
2023-03-26T01:21:49.192Z,8.79
2023-03-26T01:24:16.423Z,8.76
2023-03-26T01:26:58.706Z,8.72
2023-03-26T01:29:31.967Z,8.70
2023-03-26T01:32:32.971Z,8.69
2023-03-26T01:35:14.833Z,8.72
2023-03-26T01:38:11.077Z,8.70
2023-03-26T01:40:55.142Z,8.67
2023-03-26T01:43:49.504Z,8.71
2023-03-26T01:46:17.941Z,8.71
2023-03-26T01:48:46.393Z,8.70
2023-03-26T01:51:15.005Z,8.68
2023-03-26T01:53:45.233Z,8.70
2023-03-26T01:56:47.464Z,8.68
2023-03-26T01:59:23.208Z,8.64
2023-03-26T02:02:14.392Z,8.62
2023-03-26T02:04:59.751Z,8.57
2023-03-26T03:39:36.137Z,7.48
2023-03-26T03:42:03.962Z,7.56
2023-03-26T03:44:31.360Z,7.58
2023-03-26T03:46:59.433Z,7.59
2023-03-26T03:49:26.760Z,7.61
2023-03-26T03:51:57.676Z,7.61
2023-03-26T03:54:30.729Z,7.60
2023-03-26T03:57:07.173Z,7.62
2023-03-26T03:59:39.089Z,7.60
2023-03-26T05:20:05.221Z,7.62
2023-03-26T05:22:32.987Z,7.69
2023-03-26T05:25:23.062Z,7.69
2023-03-26T05:27:50.035Z,7.73
2023-03-26T05:30:21.427Z,7.76
2023-03-26T05:32:53.693Z,7.87
2023-03-26T05:35:25.867Z,7.93
2023-03-26T05:37:53.127Z,8.00
2023-03-26T05:40:23.546Z,8.08
2023-03-26T05:43:00.691Z,8.17
2023-03-26T05:45:42.346Z,8.13
2023-03-26T05:48:24.853Z,8.26
2023-03-26T05:50:55.021Z,8.31
2023-03-26T05:53:23.822Z,8.32
2023-03-26T05:56:09.865Z,8.38
2023-03-26T05:58:56.614Z,8.46
2023-03-26T06:01:44.940Z,8.55
2023-03-26T06:04:17.958Z,8.55
2023-03-26T06:06:57.299Z,8.62
2023-03-26T06:09:24.314Z,8.64
2023-03-26T06:11:51.705Z,8.62
2023-03-26T06:14:18.737Z,8.66
2023-03-26T06:17:06.361Z,8.73
2023-03-26T06:19:53.244Z,8.84
2023-03-26T06:22:31.807Z,8.90
2023-03-26T06:25:27.887Z,8.94
2023-03-26T06:28:04.915Z,9.05
2023-03-26T06:30:38.302Z,9.04
2023-03-26T06:33:12.949Z,9.03
2023-03-26T06:35:46.270Z,9.10
2023-03-26T06:38:14.980Z,9.14
2023-03-26T06:40:42.202Z,9.07
2023-03-26T06:43:33.816Z,9.02
2023-03-26T06:46:16.244Z,9.09
2023-03-26T06:48:43.631Z,9.18
2023-03-26T06:51:13.311Z,9.17
2023-03-26T06:54:12.767Z,9.29
2023-03-26T06:57:01.686Z,9.35
2023-03-26T07:00:08.862Z,9.36
2023-03-26T07:02:54.764Z,9.30
2023-03-26T07:05:43.068Z,9.34
2023-03-26T07:08:10.088Z,9.34
2023-03-26T07:10:56.414Z,9.42
2023-03-26T07:13:47.899Z,9.44
2023-03-26T07:16:34.622Z,9.46
2023-03-26T07:19:34.131Z,9.38
2023-03-26T07:22:01.561Z,9.47
2023-03-26T07:24:58.259Z,9.58
2023-03-26T07:28:01.325Z,9.65
2023-03-26T07:30:57.596Z,9.76
2023-03-26T07:33:41.352Z,9.93
2023-03-26T07:36:46.075Z,10.06
2023-03-26T07:39:46.308Z,10.16
2023-03-26T07:42:57.956Z,10.27
2023-03-26T07:45:57.833Z,10.27
2023-03-26T07:48:50.318Z,10.31
2023-03-26T07:51:42.042Z,10.45
2023-03-26T07:54:15.352Z,10.58
2023-03-26T07:57:18.435Z,10.68
2023-03-26T08:00:22.663Z,10.72
2023-03-26T08:03:09.148Z,10.76
2023-03-26T08:06:33.441Z,10.75
2023-03-26T08:09:43.693Z,10.84
2023-03-26T08:13:00.626Z,10.91
2023-03-26T08:15:42.119Z,10.93
2023-03-26T08:18:35.742Z,11.06
2023-03-26T08:21:26.451Z,11.16
2023-03-26T08:24:05.058Z,11.39
2023-03-26T08:27:08.986Z,11.57
2023-03-26T08:29:50.190Z,11.69
2023-03-26T08:32:19.344Z,11.80
2023-03-26T08:34:47.092Z,11.88
2023-03-26T08:37:14.453Z,11.91
2023-03-26T08:39:42.599Z,12.09
2023-03-26T08:42:34.829Z,12.24
2023-03-26T08:45:22.143Z,12.38
2023-03-26T08:48:04.583Z,12.46
2023-03-26T08:50:41.889Z,12.46
2023-03-26T08:53:18.688Z,12.64
2023-03-26T08:55:57.370Z,12.69
2023-03-26T08:58:43.344Z,12.82
2023-03-26T09:01:46.432Z,13.00
2023-03-26T09:04:41.750Z,13.15
2023-03-26T09:07:14.888Z,13.15
2023-03-26T09:10:06.496Z,13.13
2023-03-26T09:12:56.235Z,13.21
2023-03-26T09:15:45.104Z,13.46
2023-03-26T09:18:33.183Z,13.71
2023-03-26T09:21:28.040Z,13.85
2023-03-26T09:24:27.927Z,13.78
2023-03-26T09:26:55.298Z,13.68
2023-03-26T09:29:40.869Z,13.62
2023-03-26T09:32:08.096Z,13.72
2023-03-26T09:35:09.591Z,13.84
2023-03-26T09:38:11.595Z,14.12
2023-03-26T09:40:58.023Z,13.98
2023-03-26T09:43:31.355Z,13.90
2023-03-26T09:46:08.441Z,14.00
2023-03-26T09:48:38.305Z,14.20
2023-03-26T09:51:08.067Z,14.32
2023-03-26T09:53:41.161Z,14.35
2023-03-26T09:56:14.191Z,14.40
2023-03-26T09:59:32.258Z,14.42
2023-03-26T10:02:46.575Z,14.49
2023-03-26T10:05:41.864Z,14.45
2023-03-26T10:08:47.587Z,14.51
2023-03-26T10:11:36.287Z,14.61
2023-03-26T10:14:19.835Z,14.62
2023-03-26T10:17:25.910Z,14.71
2023-03-26T10:20:09.841Z,14.65
2023-03-26T10:22:48.808Z,14.61
2023-03-26T10:25:32.168Z,14.66
2023-03-26T10:28:02.210Z,14.62
2023-03-26T10:31:07.809Z,14.90
2023-03-26T10:33:56.549Z,15.30
2023-03-26T10:36:35.136Z,15.24
2023-03-26T10:39:36.309Z,15.36
2023-03-26T10:42:07.920Z,15.62
2023-03-26T10:45:02.796Z,15.61
2023-03-26T10:48:03.436Z,15.54
2023-03-26T10:51:18.379Z,15.40
2023-03-26T10:54:01.073Z,15.68
2023-03-26T10:56:34.883Z,15.64
2023-03-26T10:59:22.507Z,15.68
2023-03-26T11:02:29.284Z,15.73
2023-03-26T11:05:38.986Z,15.83
2023-03-26T11:08:19.140Z,15.82
2023-03-26T11:11:04.356Z,15.89
2023-03-26T11:13:46.873Z,15.93
2023-03-26T11:16:33.986Z,16.10
2023-03-26T11:19:22.201Z,16.02
2023-03-26T11:22:03.850Z,16.33
2023-03-26T11:24:40.845Z,16.59
2023-03-26T11:27:20.887Z,16.43
2023-03-26T11:30:22.396Z,16.27
2023-03-26T11:32:55.750Z,16.32
2023-03-26T11:35:47.575Z,16.53
2023-03-26T11:38:33.777Z,16.58
2023-03-26T11:41:08.226Z,16.31
2023-03-26T11:44:03.634Z,16.37
2023-03-26T11:46:33.873Z,16.65
2023-03-26T11:49:09.470Z,16.89
2023-03-26T11:51:38.527Z,16.86
2023-03-26T11:54:06.580Z,16.97
2023-03-26T11:57:05.410Z,16.74
2023-03-26T11:59:45.194Z,16.69
2023-03-26T12:02:24.933Z,16.95
2023-03-26T12:04:55.683Z,17.00
2023-03-26T12:07:34.022Z,17.30
2023-03-26T12:10:18.684Z,17.47
2023-03-26T12:12:47.902Z,17.42
2023-03-26T12:15:17.355Z,17.44
2023-03-26T12:17:45.455Z,17.36
2023-03-26T12:20:26.577Z,17.26
2023-03-26T12:23:02.269Z,17.30
2023-03-26T12:25:42.801Z,17.40
2023-03-26T12:28:19.783Z,17.28
2023-03-26T12:31:01.284Z,17.28
2023-03-26T12:33:34.484Z,17.28
2023-03-26T12:36:37.201Z,17.25
2023-03-26T12:40:06.854Z,17.19
2023-03-26T12:44:50.756Z,17.28
2023-03-26T12:45:24.657Z,17.55
2023-03-26T12:48:00.156Z,17.46
2023-03-26T12:50:58.023Z,17.77
2023-03-26T12:53:44.872Z,17.50
2023-03-26T12:56:38.774Z,17.42
2023-03-26T12:59:18.661Z,17.61
2023-03-26T13:02:12.303Z,17.53
2023-03-26T13:05:05.647Z,17.58
2023-03-26T13:07:34.490Z,17.48
2023-03-26T13:10:01.476Z,17.45
2023-03-26T13:12:58.458Z,17.60
2023-03-26T13:15:33.328Z,17.69
2023-03-26T13:18:21.797Z,17.98
2023-03-26T13:20:55.140Z,17.96
2023-03-26T13:23:56.050Z,17.80
2023-03-26T13:26:47.453Z,17.93
2023-03-26T13:29:26.436Z,17.80
2023-03-26T13:31:53.552Z,17.87
2023-03-26T13:34:48.122Z,17.72
2023-03-26T13:37:45.713Z,17.57
2023-03-26T13:40:36.809Z,17.84
2023-03-26T13:43:38.283Z,17.91
2023-03-26T13:46:17.174Z,17.82
2023-03-26T13:48:56.376Z,17.59
2023-03-26T13:51:42.081Z,17.66
2023-03-26T13:54:24.525Z,17.70
2023-03-26T13:57:00.149Z,17.52
2023-03-26T13:59:36.274Z,17.63
2023-03-26T14:02:28.467Z,17.79
2023-03-26T14:05:04.989Z,18.05
2023-03-26T14:07:42.150Z,17.90
2023-03-26T14:10:15.415Z,17.81
2023-03-26T14:13:06.790Z,17.92
2023-03-26T14:15:50.658Z,18.08
2023-03-26T14:18:32.688Z,18.24
2023-03-26T14:21:21.965Z,18.24
2023-03-26T14:24:23.340Z,18.38
2023-03-26T14:26:59.643Z,18.59
2023-03-26T14:29:56.712Z,18.68
2023-03-26T14:32:39.665Z,18.69
2023-03-26T14:35:20.546Z,18.85
2023-03-26T14:38:18.392Z,18.75
2023-03-26T14:41:13.455Z,18.59
2023-03-26T14:44:04.557Z,18.70
2023-03-26T14:47:04.804Z,18.39
2023-03-26T14:49:47.739Z,18.47
2023-03-26T14:52:50.987Z,18.08
2023-03-26T14:55:46.100Z,18.33
2023-03-26T14:58:36.587Z,18.57
2023-03-26T15:01:51.505Z,18.63
2023-03-26T15:04:30.193Z,18.86
2023-03-26T15:07:05.996Z,18.92
2023-03-26T15:09:49.897Z,18.80
2023-03-26T15:13:07.963Z,18.85
2023-03-26T15:16:17.897Z,18.73
2023-03-26T15:19:19.070Z,18.58
2023-03-26T15:22:31.492Z,18.49
2023-03-26T15:25:24.704Z,18.60
2023-03-26T15:28:27.226Z,18.65
2023-03-26T15:31:11.648Z,18.64
2023-03-26T15:34:03.407Z,18.85
2023-03-26T15:36:54.533Z,18.47
2023-03-26T15:40:07.564Z,17.93
2023-03-26T15:43:14.072Z,17.14
2023-03-26T15:46:37.859Z,16.66
2023-03-26T15:49:25.699Z,16.37
2023-03-26T15:52:15.503Z,16.19
2023-03-26T15:55:01.538Z,16.09
2023-03-26T15:57:39.403Z,16.12
2023-03-26T16:00:25.423Z,16.00
2023-03-26T16:02:58.438Z,15.96
2023-03-26T16:05:53.703Z,15.90
2023-03-26T16:08:47.091Z,15.77
2023-03-26T16:11:15.674Z,15.73
2023-03-26T16:14:04.245Z,15.60
2023-03-26T16:16:56.545Z,15.51
2023-03-26T16:19:23.461Z,15.48
2023-03-26T16:22:04.556Z,15.41
2023-03-26T16:24:35.494Z,15.34
2023-03-26T16:27:10.838Z,15.31
2023-03-26T16:30:30.602Z,15.33
2023-03-26T16:33:11.096Z,15.31
2023-03-26T16:36:15.483Z,15.21
2023-03-26T16:39:00.950Z,15.15
2023-03-26T16:41:34.986Z,15.12
2023-03-26T16:44:17.521Z,15.10
2023-03-26T16:47:16.816Z,15.00
2023-03-26T16:50:14.812Z,15.06
2023-03-26T16:52:52.281Z,15.02
2023-03-26T16:55:25.774Z,14.99
2023-03-26T16:58:16.141Z,15.01
2023-03-26T17:01:04.713Z,14.90
2023-03-26T17:03:54.799Z,14.83
2023-03-26T17:06:36.766Z,14.64
2023-03-26T17:09:14.313Z,14.31
2023-03-26T17:11:41.173Z,14.23
2023-03-26T17:14:29.674Z,14.20
2023-03-26T17:17:02.886Z,14.03
2023-03-26T17:19:41.969Z,13.88
2023-03-26T17:22:35.577Z,13.73
2023-03-26T17:25:27.325Z,13.54
2023-03-26T17:28:21.478Z,13.45
2023-03-26T17:31:02.298Z,13.32
2023-03-26T17:33:36.339Z,13.13
2023-03-26T17:36:12.615Z,13.10
2023-03-26T17:38:39.569Z,13.04
2023-03-26T17:41:15.804Z,12.87
2023-03-26T17:43:44.036Z,12.75
2023-03-26T17:46:22.193Z,12.68
2023-03-26T17:49:11.802Z,12.55
2023-03-26T17:51:56.679Z,12.42
2023-03-26T17:54:30.836Z,12.45
2023-03-26T17:57:04.419Z,12.36
2023-03-26T17:59:33.499Z,12.28
2023-03-26T18:02:03.783Z,12.35
2023-03-26T18:04:45.414Z,12.34
2023-03-26T18:07:37.983Z,12.27
2023-03-26T18:10:29.235Z,12.31
2023-03-26T18:13:19.236Z,12.26
2023-03-26T18:15:55.588Z,12.22
2023-03-26T18:18:28.388Z,12.25
2023-03-26T18:20:58.535Z,12.21
2023-03-26T18:23:30.406Z,12.14
2023-03-26T18:26:15.699Z,12.02
2023-03-26T18:28:50.616Z,11.95
2023-03-26T18:31:24.204Z,11.86
2023-03-26T18:33:56.103Z,11.78
2023-03-26T18:36:27.972Z,11.69
2023-03-26T18:39:04.464Z,11.58
2023-03-26T18:41:37.552Z,11.57
2023-03-26T18:44:06.740Z,11.52
2023-03-26T18:46:34.331Z,11.56
2023-03-26T18:49:03.223Z,11.55
2023-03-26T18:51:33.009Z,11.50
2023-03-26T18:54:06.224Z,11.36
2023-03-26T18:56:36.938Z,11.28
2023-03-26T18:59:07.032Z,11.17
2023-03-26T19:01:37.645Z,11.06
2023-03-26T19:04:07.738Z,11.11
2023-03-26T19:06:38.891Z,11.05
2023-03-26T19:09:23.825Z,11.02
2023-03-26T19:11:58.508Z,10.98
2023-03-26T19:14:27.307Z,11.05
2023-03-26T19:17:00.312Z,11.09
2023-03-26T19:19:32.403Z,11.08
2023-03-26T19:21:59.784Z,11.03
2023-03-26T19:24:54.562Z,11.04
2023-03-26T19:27:46.666Z,10.98
2023-03-26T19:30:39.615Z,10.97
2023-03-26T19:33:18.656Z,10.99
2023-03-26T19:35:51.009Z,10.95
2023-03-26T19:38:27.387Z,10.85
2023-03-26T19:41:22.836Z,10.73
2023-03-26T19:44:00.650Z,10.58
2023-03-26T19:46:29.425Z,10.52
2023-03-26T19:48:57.907Z,10.47
2023-03-26T19:51:34.895Z,10.56
2023-03-26T19:54:16.203Z,10.55
2023-03-26T19:56:43.750Z,10.56
2023-03-26T19:59:11.030Z,10.52
2023-03-26T20:01:38.103Z,10.48
2023-03-26T20:04:06.964Z,10.49
2023-03-26T20:06:43.090Z,10.41
2023-03-26T20:11:56.533Z,10.02
2023-03-26T20:14:26.753Z,10.04
2023-03-26T20:16:55.399Z,10.08
2023-03-26T20:19:23.043Z,10.13
2023-03-26T20:21:51.547Z,10.12
2023-03-26T20:24:19.444Z,10.11
2023-03-26T20:26:46.718Z,10.08
2023-03-26T20:29:14.976Z,10.03
2023-03-26T20:31:51.345Z,10.04
2023-03-26T20:34:23.655Z,10.02
2023-03-26T20:37:01.130Z,9.97
2023-03-26T20:39:30.157Z,9.83
2023-03-26T20:41:57.272Z,9.78
2023-03-26T20:44:27.395Z,9.69
2023-03-26T20:46:56.375Z,9.65
2023-03-26T20:49:23.554Z,9.57
2023-03-26T20:51:50.576Z,9.62
2023-03-26T20:54:23.571Z,9.62
2023-03-26T20:56:51.317Z,9.59
2023-03-26T20:59:27.013Z,9.54
2023-03-26T21:01:56.990Z,9.45
2023-03-26T21:04:25.142Z,9.46
2023-03-26T21:06:57.639Z,9.41
2023-03-26T21:09:35.737Z,9.50
2023-03-26T21:12:17.038Z,9.51
2023-03-26T21:14:44.875Z,9.46
2023-03-26T21:17:18.551Z,9.36
2023-03-26T21:19:46.389Z,9.26
2023-03-26T21:22:20.240Z,9.14
2023-03-26T21:25:05.704Z,9.12
2023-03-26T21:27:41.704Z,9.05
2023-03-26T21:30:16.622Z,8.91
2023-03-26T21:32:45.720Z,8.85
2023-03-26T21:35:15.151Z,8.72
2023-03-26T21:37:44.389Z,8.66
2023-03-26T21:40:16.927Z,8.68
2023-03-26T21:42:46.581Z,8.58
2023-03-26T21:45:14.584Z,8.55
2023-03-26T21:47:42.549Z,8.54
2023-03-26T21:50:12.027Z,8.53
2023-03-26T21:52:47.143Z,8.55
2023-03-26T21:55:20.547Z,8.57
2023-03-26T21:58:38.364Z,8.56
2023-03-26T22:01:19.588Z,8.53
2023-03-26T22:03:58.865Z,8.47
2023-03-26T22:06:25.922Z,8.40
2023-03-26T22:08:53.028Z,8.29
2023-03-26T22:11:20.181Z,8.24
2023-03-26T22:13:47.133Z,8.20
2023-03-26T22:16:14.120Z,8.15
2023-03-26T22:18:43.918Z,8.13
2023-03-26T22:21:10.886Z,8.09
2023-03-26T22:23:38.916Z,7.98
2023-03-26T22:26:06.421Z,8.06
2023-03-26T22:28:33.669Z,8.06
2023-03-26T22:31:08.895Z,8.14
2023-03-26T22:33:36.338Z,8.08
2023-03-26T22:36:03.378Z,8.12
2023-03-26T22:38:30.345Z,8.05
2023-03-26T22:40:58.377Z,8.00
2023-03-26T22:43:25.430Z,7.91
2023-03-26T22:45:54.437Z,7.87
2023-03-26T22:48:23.700Z,7.82
2023-03-26T22:50:59.727Z,7.76
2023-03-26T22:53:26.632Z,7.63
2023-03-26T22:55:53.621Z,7.61
2023-03-26T22:58:20.570Z,7.63
2023-03-26T23:00:47.646Z,7.63
2023-03-26T23:03:14.559Z,7.63
2023-03-26T23:05:41.477Z,7.60
2023-03-26T23:08:08.419Z,7.64
2023-03-26T23:10:36.558Z,7.58
2023-03-26T23:13:03.503Z,7.44
2023-03-26T23:15:30.764Z,7.39
2023-03-26T23:17:59.081Z,7.26
2023-03-26T23:20:25.991Z,7.28
2023-03-26T23:22:52.983Z,7.25
2023-03-26T23:25:20.250Z,7.28
2023-03-26T23:27:48.567Z,7.33
2023-03-26T23:30:16.942Z,7.34
2023-03-26T23:32:44.217Z,7.36
2023-03-26T23:35:11.446Z,7.41
2023-03-26T23:37:38.406Z,7.40
2023-03-26T23:40:10.586Z,7.49
2023-03-26T23:42:38.022Z,7.49
2023-03-26T23:45:06.757Z,7.41
2023-03-26T23:47:34.759Z,7.47
2023-03-26T23:50:05.281Z,7.51
2023-03-26T23:52:32.302Z,7.35
2023-03-26T23:55:02.489Z,7.37
2023-03-26T23:57:30.720Z,7.34
2023-03-26T23:59:57.679Z,7.38
